Time,TemperatureF,DewpointF,PressureIn,WindDirection,WindDirectionDegrees,WindSpeedMPH,WindSpeedGustMPH,Humidity,HourlyPrecipIn,Conditions,Clouds,dailyrainin,SoftwareType,DateUTC
2013-04-18 00:00:00,63.1,61.7,30.32,NE,44,0.0,0.0,95,0.00,,SCT250,0.01,VWS V14.01,2013-04-18 04:00:00,
2013-04-18 00:01:00,63.1,61.7,30.32,NE,44,0.0,0.0,95,0.00,,SCT250,0.00,VWS V14.01,2013-04-18 04:01:00,
2013-04-18 00:02:00,63.1,61.7,30.32,NE,44,0.0,0.0,95,0.00,,SCT250,0.00,VWS V14.01,2013-04-18 04:02:00,
2013-04-18 00:05:00,63.1,61.7,30.32,NE,44,0.0,0.0,95,0.00,,SCT250,0.00,VWS V14.01,2013-04-18 04:05:00,
2013-04-18 00:10:00,62.9,61.5,30.32,NE,44,0.0,0.0,95,0.00,,SCT250,0.00,VWS V14.01,2013-04-18 04:10:00,
2013-04-18 00:15:00,62.7,61.2,30.31,NE,44,0.0,0.0,95,0.00,,SCT250,0.00,VWS V14.01,2013-04-18 04:15:00,
2013-04-18 00:20:00,62.6,61.2,30.31,NE,44,0.0,0.0,95,0.00,,SCT250,0.00,VWS V14.01,2013-04-18 04:20:00,
2013-04-18 00:25:00,62.6,61.2,30.31,NE,44,0.0,0.0,95,0.00,,SCT250,0.00,VWS V14.01,2013-04-18 04:25:00,
2013-04-18 00:30:00,62.6,61.2,30.31,NE,44,0.0,0.0,95,0.00,,SCT250,0.00,VWS V14.01,2013-04-18 04:30:00,
2013-04-18 00:35:00,62.6,61.2,30.31,NE,44,0.0,0.0,95,0.00,,SCT250,0.00,VWS V14.01,2013-04-18 04:35:00,
2013-04-18 00:40:00,62.4,61.0,30.31,NE,44,0.0,0.0,95,0.00,,SCT250,0.00,VWS V14.01,2013-04-18 04:40:00,
2013-04-18 00:45:00,62.4,61.0,30.31,NE,44,0.0,0.0,95,0.00,,SCT250,0.00,VWS V14.01,2013-04-18 04:45:00,
2013-04-18 00:50:00,62.3,60.8,30.31,NE,44,0.0,0.0,95,0.00,,SCT250,0.00,VWS V14.01,2013-04-18 04:50:00,
2013-04-18 00:55:00,62.3,61.2,30.31,NE,44,0.0,0.0,96,0.00,,SCT250,0.00,VWS V14.01,2013-04-18 04:55:00,
2013-04-18 01:00:00,62.1,61.0,30.30,NE,44,0.0,0.0,96,0.00,,BKN250,0.00,VWS V14.01,2013-04-18 05:00:00,
2013-04-18 01:06:00,62.4,61.2,30.30,NE,44,0.0,0.0,96,0.00,,BKN250,0.00,VWS V14.01,2013-04-18 05:06:00,
2013-04-18 01:11:00,62.4,61.2,30.30,NE,44,0.0,0.0,96,0.00,,BKN250,0.00,VWS V14.01,2013-04-18 05:11:00,
2013-04-18 01:16:00,62.3,61.2,30.29,NE,44,0.0,0.0,96,0.00,,BKN250,0.00,VWS V14.01,2013-04-18 05:16:00,
2013-04-18 01:21:00,62.1,61.0,30.29,NE,44,0.0,0.0,96,0.00,,BKN250,0.00,VWS V14.01,2013-04-18 05:21:00,
2013-04-18 01:26:00,62.1,61.0,30.29,NE,44,0.0,0.0,96,0.00,,BKN250,0.00,VWS V14.01,2013-04-18 05:26:00,
2013-04-18 01:31:00,62.0,60.8,30.28,NE,44,0.0,0.0,96,0.00,,BKN250,0.00,VWS V14.01,2013-04-18 05:31:00,
2013-04-18 01:36:00,62.0,60.8,30.28,NE,44,0.0,0.0,96,0.00,,BKN250,0.00,VWS V14.01,2013-04-18 05:36:00,
2013-04-18 01:41:00,62.0,60.8,30.28,NE,44,0.0,0.0,96,0.00,,BKN250,0.00,VWS V14.01,2013-04-18 05:41:00,
2013-04-18 01:46:00,62.0,60.8,30.28,NE,44,0.0,0.0,96,0.00,,BKN250,0.00,VWS V14.01,2013-04-18 05:46:00,
2013-04-18 01:52:00,62.0,60.8,30.28,NE,44,0.0,0.0,96,0.00,,BKN250,0.00,VWS V14.01,2013-04-18 05:52:00,
2013-04-18 01:57:00,62.1,61.0,30.28,NE,44,0.0,0.0,96,0.00,,BKN250,0.00,VWS V14.01,2013-04-18 05:57:00,
2013-04-18 02:02:00,62.4,61.5,30.28,NE,44,0.0,0.0,97,0.00,,SCT250,0.00,VWS V14.01,2013-04-18 06:02:00,
2013-04-18 02:07:00,62.7,61.8,30.28,NE,44,0.0,0.0,97,0.00,,SCT250,0.00,VWS V14.01,2013-04-18 06:07:00,
2013-04-18 02:12:00,62.9,62.0,30.28,NE,44,0.0,0.0,97,0.00,,SCT250,0.00,VWS V14.01,2013-04-18 06:12:00,
2013-04-18 02:17:00,62.7,61.8,30.27,NE,44,0.0,0.0,97,0.00,,SCT250,0.00,VWS V14.01,2013-04-18 06:17:00,
2013-04-18 02:22:00,62.6,61.7,30.27,NE,44,0.0,0.0,97,0.00,,SCT250,0.00,VWS V14.01,2013-04-18 06:22:00,
2013-04-18 02:27:00,62.4,61.5,30.27,NE,44,0.0,0.0,97,0.00,,SCT250,0.00,VWS V14.01,2013-04-18 06:27:00,
2013-04-18 02:33:00,62.4,61.5,30.27,NE,44,0.0,0.0,97,0.00,,SCT250,0.00,VWS V14.01,2013-04-18 06:33:00,
2013-04-18 02:38:00,62.4,61.5,30.27,NE,44,0.0,0.0,97,0.00,,SCT250,0.00,VWS V14.01,2013-04-18 06:38:00,
2013-04-18 02:43:00,62.3,61.4,30.27,NE,44,0.0,0.0,97,0.00,,SCT250,0.00,VWS V14.01,2013-04-18 06:43:00,
2013-04-18 02:48:00,62.1,61.2,30.27,NE,44,0.0,0.0,97,0.00,,SCT250,0.00,VWS V14.01,2013-04-18 06:48:00,
2013-04-18 02:53:00,62.0,61.1,30.27,NE,44,0.0,0.0,97,0.00,,SCT250,0.00,VWS V14.01,2013-04-18 06:53:00,
2013-04-18 02:58:00,61.8,60.9,30.27,NE,44,0.0,0.0,97,0.00,,SCT250,0.00,VWS V14.01,2013-04-18 06:58:00,
2013-04-18 03:03:00,61.8,60.9,30.27,NE,44,0.0,0.0,97,0.00,,BKN250,0.00,VWS V14.01,2013-04-18 07:03:00,
2013-04-18 03:08:00,61.6,60.7,30.27,NE,44,0.0,0.0,97,0.00,,BKN250,0.00,VWS V14.01,2013-04-18 07:08:00,
2013-04-18 03:14:00,61.8,60.9,30.27,NE,44,0.0,0.0,97,0.00,,BKN250,0.00,VWS V14.01,2013-04-18 07:14:00,
2013-04-18 03:19:00,61.6,60.7,30.26,NE,44,0.0,0.0,97,0.00,,BKN250,0.00,VWS V14.01,2013-04-18 07:19:00,
2013-04-18 03:24:00,61.6,60.7,30.26,NE,44,0.0,0.0,97,0.00,,BKN250,0.00,VWS V14.01,2013-04-18 07:24:00,
2013-04-18 03:29:00,61.6,60.7,30.26,NE,44,0.0,0.0,97,0.00,,BKN250,0.00,VWS V14.01,2013-04-18 07:29:00,
2013-04-18 03:34:00,61.5,60.6,30.26,NE,44,0.0,0.0,97,0.00,,BKN250,0.00,VWS V14.01,2013-04-18 07:34:00,
2013-04-18 03:39:00,61.5,60.6,30.26,NE,44,0.0,0.0,97,0.00,,BKN250,0.00,VWS V14.01,2013-04-18 07:39:00,
2013-04-18 03:44:00,61.3,60.4,30.25,NE,44,0.0,0.0,97,0.00,,BKN250,0.00,VWS V14.01,2013-04-18 07:44:00,
2013-04-18 03:49:00,61.2,60.3,30.25,NE,44,0.0,0.0,97,0.00,,BKN250,0.00,VWS V14.01,2013-04-18 07:49:00,
2013-04-18 03:55:00,61.0,60.2,30.25,NE,44,0.0,0.0,97,0.00,,BKN250,0.00,VWS V14.01,2013-04-18 07:55:00,
2013-04-18 04:00:00,60.9,60.0,30.25,NE,44,0.0,0.0,97,0.00,,BKN250,0.00,VWS V14.01,2013-04-18 08:00:00,
2013-04-18 04:05:00,60.9,60.0,30.25,NE,44,0.0,0.0,97,0.00,,,0.00,VWS V14.01,2013-04-18 08:05:00,
2013-04-18 04:10:00,60.7,59.8,30.25,NE,44,0.0,0.0,97,0.00,,,0.00,VWS V14.01,2013-04-18 08:10:00,
2013-04-18 04:15:00,60.5,59.7,30.25,NE,44,0.0,0.0,97,0.00,,,0.00,VWS V14.01,2013-04-18 08:15:00,
2013-04-18 04:20:00,60.4,59.5,30.25,NE,44,0.0,0.0,97,0.00,,,0.00,VWS V14.01,2013-04-18 08:20:00,
2013-04-18 04:25:00,60.2,59.3,30.25,NE,44,0.0,0.0,97,0.00,,,0.00,VWS V14.01,2013-04-18 08:25:00,
2013-04-18 04:30:00,60.5,59.7,30.25,NE,44,0.0,0.0,97,0.00,,,0.00,VWS V14.01,2013-04-18 08:30:00,
2013-04-18 04:36:00,60.9,60.3,30.25,NE,44,0.0,0.0,98,0.00,,,0.00,VWS V14.01,2013-04-18 08:36:00,
2013-04-18 04:41:00,61.0,60.4,30.25,NE,44,0.0,0.0,98,0.00,,,0.00,VWS V14.01,2013-04-18 08:41:00,
2013-04-18 04:46:00,61.2,60.6,30.25,NE,44,0.0,0.0,98,0.00,,,0.00,VWS V14.01,2013-04-18 08:46:00,
2013-04-18 04:51:00,61.2,60.6,30.25,NE,44,0.0,0.0,98,0.00,,,0.00,VWS V14.01,2013-04-18 08:51:00,
2013-04-18 04:56:00,61.0,60.2,30.25,NE,44,0.0,0.0,97,0.00,,,0.00,VWS V14.01,2013-04-18 08:56:00,
2013-04-18 05:01:00,61.2,60.6,30.25,NE,44,0.0,0.0,98,0.00,,,0.00,VWS V14.01,2013-04-18 09:01:00,
2013-04-18 05:06:00,61.2,60.6,30.25,NE,44,0.0,0.0,98,0.00,,,0.00,VWS V14.01,2013-04-18 09:06:00,
2013-04-18 05:11:00,61.2,60.6,30.25,NE,44,0.0,0.0,98,0.00,,,0.00,VWS V14.01,2013-04-18 09:11:00,
2013-04-18 05:16:00,61.2,60.6,30.25,NE,44,0.0,0.0,98,0.00,,,0.00,VWS V14.01,2013-04-18 09:16:00,
2013-04-18 05:22:00,61.2,60.6,30.25,NE,44,0.0,0.0,98,0.00,,,0.00,VWS V14.01,2013-04-18 09:22:00,
2013-04-18 05:27:00,61.3,60.7,30.25,NE,44,0.0,0.0,98,0.00,,,0.00,VWS V14.01,2013-04-18 09:27:00,
2013-04-18 05:32:00,61.5,60.9,30.25,NE,44,0.0,0.0,98,0.00,,,0.00,VWS V14.01,2013-04-18 09:32:00,
2013-04-18 05:37:00,61.8,61.2,30.25,NE,44,0.0,0.0,98,0.00,,,0.00,VWS V14.01,2013-04-18 09:37:00,
2013-04-18 05:42:00,61.8,61.2,30.25,NE,44,0.0,0.0,98,0.00,,,0.00,VWS V14.01,2013-04-18 09:42:00,
2013-04-18 05:47:00,61.8,61.2,30.26,NE,44,0.0,0.0,98,0.00,,,0.00,VWS V14.01,2013-04-18 09:47:00,
2013-04-18 05:52:00,61.8,61.2,30.26,NE,44,0.0,0.0,98,0.00,,,0.00,VWS V14.01,2013-04-18 09:52:00,
2013-04-18 05:57:00,61.6,61.0,30.26,NE,44,0.0,0.0,98,0.00,,,0.00,VWS V14.01,2013-04-18 09:57:00,
2013-04-18 06:02:00,61.8,61.2,30.26,NE,44,0.0,0.0,98,0.00,,,0.00,VWS V14.01,2013-04-18 10:02:00,
2013-04-18 06:07:00,62.3,61.7,30.26,NE,44,0.0,0.0,98,0.00,,,0.00,VWS V14.01,2013-04-18 10:07:00,
2013-04-18 06:12:00,62.4,61.8,30.26,NE,44,0.0,0.0,98,0.00,,,0.00,VWS V14.01,2013-04-18 10:12:00,
2013-04-18 06:17:00,62.6,62.0,30.27,NE,44,0.0,0.0,98,0.00,,,0.00,VWS V14.01,2013-04-18 10:17:00,
2013-04-18 06:23:00,62.7,62.1,30.27,NE,44,0.0,0.0,98,0.00,,,0.00,VWS V14.01,2013-04-18 10:23:00,
2013-04-18 06:28:00,62.9,62.3,30.27,NE,44,0.0,0.0,98,0.00,,,0.00,VWS V14.01,2013-04-18 10:28:00,
2013-04-18 06:33:00,63.1,62.5,30.27,NE,44,0.0,0.0,98,0.00,,,0.00,VWS V14.01,2013-04-18 10:33:00,
2013-04-18 06:38:00,63.2,62.6,30.27,NE,44,0.0,0.0,98,0.00,,,0.00,VWS V14.01,2013-04-18 10:38:00,
2013-04-18 06:43:00,63.4,62.8,30.27,NE,44,0.0,0.0,98,0.00,,,0.00,VWS V14.01,2013-04-18 10:43:00,
2013-04-18 06:48:00,63.4,62.8,30.27,NE,44,0.0,0.0,98,0.00,,,0.00,VWS V14.01,2013-04-18 10:48:00,
2013-04-18 06:53:00,63.4,62.8,30.27,NE,44,0.0,0.0,98,0.00,,,0.00,VWS V14.01,2013-04-18 10:53:00,
2013-04-18 06:58:00,63.5,62.9,30.27,NE,44,0.0,0.0,98,0.00,,,0.00,VWS V14.01,2013-04-18 10:58:00,
2013-04-18 07:03:00,63.5,62.9,30.28,NE,44,0.0,0.0,98,0.00,,BKN250,0.00,VWS V14.01,2013-04-18 11:03:00,
2013-04-18 07:08:00,63.7,63.1,30.28,NE,44,0.0,0.0,98,0.00,,BKN250,0.00,VWS V14.01,2013-04-18 11:08:00,
2013-04-18 07:13:00,64.0,63.4,30.28,NE,44,0.0,0.0,98,0.00,,BKN250,0.00,VWS V14.01,2013-04-18 11:13:00,
2013-04-18 07:18:00,64.3,63.7,30.29,NE,44,0.0,0.0,98,0.00,,BKN250,0.00,VWS V14.01,2013-04-18 11:18:00,
2013-04-18 07:23:00,64.5,63.9,30.29,NE,44,0.0,0.0,98,0.00,,BKN250,0.00,VWS V14.01,2013-04-18 11:23:00,
2013-04-18 07:28:00,65.0,64.4,30.29,NE,44,0.0,0.0,98,0.00,,BKN250,0.00,VWS V14.01,2013-04-18 11:28:00,
2013-04-18 07:33:00,65.3,64.7,30.29,NE,44,0.0,0.0,98,0.00,,BKN250,0.00,VWS V14.01,2013-04-18 11:33:00,
2013-04-18 07:38:00,65.6,65.0,30.29,NE,44,0.0,0.0,98,0.00,,BKN250,0.00,VWS V14.01,2013-04-18 11:38:00,
2013-04-18 07:43:00,65.8,65.2,30.29,NE,44,0.0,0.0,98,0.00,,BKN250,0.00,VWS V14.01,2013-04-18 11:43:00,
2013-04-18 07:48:00,66.1,65.5,30.29,NE,44,0.0,0.0,98,0.00,,BKN250,0.00,VWS V14.01,2013-04-18 11:48:00,
2013-04-18 07:53:00,66.3,65.7,30.29,NE,44,0.0,0.0,98,0.00,,BKN250,0.00,VWS V14.01,2013-04-18 11:53:00,
2013-04-18 07:58:00,66.4,65.8,30.29,NE,44,0.0,0.0,98,0.00,,BKN250,0.00,VWS V14.01,2013-04-18 11:58:00,
2013-04-18 08:03:00,66.4,65.8,30.30,NE,44,0.0,0.0,98,0.00,,BKN250,0.00,VWS V14.01,2013-04-18 12:03:00,
2013-04-18 08:08:00,66.4,65.8,30.30,NE,44,0.0,0.0,98,0.00,,BKN250,0.00,VWS V14.01,2013-04-18 12:08:00,
2013-04-18 08:13:00,66.6,66.0,30.30,NE,44,0.0,0.0,98,0.00,,BKN250,0.00,VWS V14.01,2013-04-18 12:13:00,
2013-04-18 08:18:00,66.6,66.0,30.30,NE,44,0.0,0.0,98,0.00,,BKN250,0.00,VWS V14.01,2013-04-18 12:18:00,
2013-04-18 08:23:00,66.8,66.2,30.30,NE,44,0.0,0.0,98,0.00,,BKN250,0.00,VWS V14.01,2013-04-18 12:23:00,
2013-04-18 08:28:00,66.8,66.2,30.30,NE,44,0.0,0.0,98,0.00,,BKN250,0.00,VWS V14.01,2013-04-18 12:28:00,
2013-04-18 08:33:00,66.9,66.3,30.30,NE,44,0.0,0.0,98,0.00,,BKN250,0.00,VWS V14.01,2013-04-18 12:33:00,
2013-04-18 08:38:00,67.1,66.5,30.30,NE,44,0.0,0.0,98,0.00,,BKN250,0.00,VWS V14.01,2013-04-18 12:38:00,
2013-04-18 08:43:00,67.9,67.3,30.30,NE,44,0.0,0.0,98,0.00,,BKN250,0.00,VWS V14.01,2013-04-18 12:43:00,
2013-04-18 08:49:00,68.6,68.0,30.30,NE,44,0.0,0.0,98,0.00,,BKN250,0.00,VWS V14.01,2013-04-18 12:49:00,
2013-04-18 08:54:00,68.9,68.3,30.30,NE,44,0.0,0.0,98,0.00,,BKN250,0.00,VWS V14.01,2013-04-18 12:54:00,
2013-04-18 08:59:00,69.4,68.8,30.30,NE,44,0.0,0.0,98,0.00,,BKN250,0.00,VWS V14.01,2013-04-18 12:59:00,
2013-04-18 09:04:00,69.9,69.0,30.30,NE,44,0.0,0.0,97,0.00,,BKN250,0.00,VWS V14.01,2013-04-18 13:04:00,
2013-04-18 09:09:00,70.6,69.4,30.30,East,86,0.0,0.0,96,0.00,,BKN250,0.00,VWS V14.01,2013-04-18 13:09:00,
2013-04-18 09:14:00,71.1,69.6,30.30,ENE,77,0.0,0.0,95,0.00,,BKN250,0.00,VWS V14.01,2013-04-18 13:14:00,
2013-04-18 09:19:00,71.6,69.5,30.30,ENE,75,0.0,0.0,93,0.00,,BKN250,0.00,VWS V14.01,2013-04-18 13:19:00,
2013-04-18 09:24:00,71.8,69.0,30.30,ENE,71,0.0,0.0,91,0.00,,BKN250,0.00,VWS V14.01,2013-04-18 13:24:00,
2013-04-18 09:29:00,72.3,68.6,30.29,SSW,195,0.0,1.0,88,0.00,,BKN250,0.00,VWS V14.01,2013-04-18 13:29:00,
2013-04-18 09:35:00,72.7,68.3,30.29,NNE,33,0.0,0.0,86,0.00,,BKN250,0.00,VWS V14.01,2013-04-18 13:35:00,
2013-04-18 09:40:00,73.0,67.9,30.29,ENE,77,1.0,1.0,84,0.00,,BKN250,0.00,VWS V14.01,2013-04-18 13:40:00,
2013-04-18 09:45:00,73.3,68.2,30.30,East,100,0.0,0.0,84,0.00,,BKN250,0.00,VWS V14.01,2013-04-18 13:45:00,
2013-04-18 09:50:00,74.2,68.0,30.30,SE,132,0.0,2.0,81,0.00,,BKN250,0.00,VWS V14.01,2013-04-18 13:50:00,
2013-04-18 09:55:00,75.1,68.5,30.30,NE,34,0.0,1.0,80,0.00,,BKN250,0.00,VWS V14.01,2013-04-18 13:55:00,
2013-04-18 10:00:00,76.3,68.6,30.30,NE,41,0.0,2.0,77,0.00,,BKN250,0.00,VWS V14.01,2013-04-18 14:00:00,
2013-04-18 10:05:00,76.5,67.6,30.30,NE,46,3.0,3.0,74,0.00,,BKN250,0.00,VWS V14.01,2013-04-18 14:05:00,
2013-04-18 10:10:00,76.3,67.4,30.30,NE,46,0.0,0.0,74,0.00,,BKN250,0.00,VWS V14.01,2013-04-18 14:10:00,
2013-04-18 10:16:00,76.0,66.3,30.30,ENE,76,0.0,0.0,72,0.00,,BKN250,0.00,VWS V14.01,2013-04-18 14:16:00,
2013-04-18 10:21:00,76.3,67.4,30.30,NNE,33,0.0,0.0,74,0.00,,BKN250,0.00,VWS V14.01,2013-04-18 14:21:00,
2013-04-18 10:26:00,76.8,66.3,30.30,ENE,63,0.0,2.0,70,0.00,,BKN250,0.00,VWS V14.01,2013-04-18 14:26:00,
2013-04-18 10:31:00,77.2,66.2,30.30,ESE,115,4.0,6.0,69,0.00,,BKN250,0.00,VWS V14.01,2013-04-18 14:31:00,
2013-04-18 10:36:00,77.4,66.9,30.30,ENE,60,2.0,5.0,70,0.00,,BKN250,0.00,VWS V14.01,2013-04-18 14:36:00,
2013-04-18 10:41:00,77.9,65.6,30.30,South,171,2.0,6.0,66,0.00,,BKN250,0.00,VWS V14.01,2013-04-18 14:41:00,
2013-04-18 10:46:00,77.7,66.7,30.30,North,358,1.0,7.0,69,0.00,,BKN250,0.00,VWS V14.01,2013-04-18 14:46:00,
2013-04-18 10:51:00,78.1,66.3,30.30,East,89,0.0,5.0,67,0.00,,BKN250,0.00,VWS V14.01,2013-04-18 14:51:00,
2013-04-18 10:56:00,78.5,66.6,30.30,SE,144,0.0,3.0,67,0.00,,BKN250,0.00,VWS V14.01,2013-04-18 14:56:00,
2013-04-18 11:01:00,78.1,66.3,30.30,North,0,0.0,0.0,67,0.00,,BKN050,0.00,VWS V14.01,2013-04-18 15:01:00,
2013-04-18 11:07:00,78.1,66.7,30.30,SSE,165,4.0,6.0,68,0.00,,BKN050,0.00,VWS V14.01,2013-04-18 15:07:00,
2013-04-18 11:12:00,77.9,65.6,30.30,NE,45,2.0,8.0,66,0.00,,BKN050,0.00,VWS V14.01,2013-04-18 15:12:00,
2013-04-18 11:17:00,78.5,66.2,30.30,ENE,76,4.0,4.0,66,0.00,,BKN050,0.00,VWS V14.01,2013-04-18 15:17:00,
2013-04-18 11:22:00,78.8,65.6,30.30,North,353,0.0,5.0,64,0.00,,BKN050,0.00,VWS V14.01,2013-04-18 15:22:00,
2013-04-18 11:27:00,78.3,65.1,30.30,North,11,0.0,4.0,64,0.00,,BKN050,0.00,VWS V14.01,2013-04-18 15:27:00,
2013-04-18 11:32:00,77.6,65.3,30.30,NE,49,0.0,5.0,66,0.00,,BKN055,0.00,VWS V14.01,2013-04-18 15:32:00,
2013-04-18 11:37:00,77.2,65.0,30.30,NE,36,0.0,0.0,66,0.00,,BKN055,0.00,VWS V14.01,2013-04-18 15:37:00,
2013-04-18 11:43:00,77.4,65.6,30.30,East,79,0.0,4.0,67,0.00,,BKN055,0.00,VWS V14.01,2013-04-18 15:43:00,
2013-04-18 11:48:00,77.0,64.8,30.30,SSE,155,3.0,5.0,66,0.00,,BKN055,0.00,VWS V14.01,2013-04-18 15:48:00,
2013-04-18 11:53:00,76.3,64.6,30.30,South,174,0.0,1.0,67,0.00,,BKN055,0.00,VWS V14.01,2013-04-18 15:53:00,
2013-04-18 11:58:00,76.8,64.6,30.30,NE,41,2.0,2.0,66,0.00,,BKN055,0.00,VWS V14.01,2013-04-18 15:58:00,
2013-04-18 12:03:00,77.9,64.8,30.29,NE,46,0.0,3.0,64,0.00,,BKN050,0.00,VWS V14.01,2013-04-18 16:03:00,
2013-04-18 12:08:00,78.5,64.9,30.29,ENE,65,0.0,1.0,63,0.00,,BKN050,0.00,VWS V14.01,2013-04-18 16:08:00,
2013-04-18 12:13:00,78.6,64.5,30.29,ESE,102,1.0,1.0,62,0.00,,BKN050,0.00,VWS V14.01,2013-04-18 16:13:00,
2013-04-18 12:18:00,78.8,64.7,30.29,East,81,1.0,2.0,62,0.00,,BKN050,0.00,VWS V14.01,2013-04-18 16:18:00,
2013-04-18 12:23:00,78.8,64.2,30.29,East,79,0.0,1.0,61,0.00,,BKN050,0.00,VWS V14.01,2013-04-18 16:23:00,
2013-04-18 12:28:00,78.8,64.2,30.29,ENE,72,0.0,7.0,61,0.00,,BKN050,0.00,VWS V14.01,2013-04-18 16:28:00,
2013-04-18 12:33:00,78.8,64.7,30.29,SE,143,0.0,1.0,62,0.00,,BKN050,0.00,VWS V14.01,2013-04-18 16:33:00,
2013-04-18 12:38:00,78.8,63.8,30.29,NE,53,0.0,3.0,60,0.00,,BKN050,0.00,VWS V14.01,2013-04-18 16:38:00,
2013-04-18 12:43:00,79.0,64.4,30.29,East,99,3.0,13.0,61,0.00,,BKN050,0.00,VWS V14.01,2013-04-18 16:43:00,
2013-04-18 12:48:00,79.6,63.5,30.29,NE,47,2.0,7.0,58,0.00,,BKN050,0.00,VWS V14.01,2013-04-18 16:48:00,
2013-04-18 12:53:00,79.8,64.2,30.29,ENE,61,3.0,5.0,59,0.00,,BKN050,0.00,VWS V14.01,2013-04-18 16:53:00,
2013-04-18 12:58:00,80.5,64.4,30.29,ENE,70,2.0,4.0,58,0.00,,BKN050,0.00,VWS V14.01,2013-04-18 16:58:00,
2013-04-18 13:03:00,80.5,64.4,30.28,NE,38,0.0,2.0,58,0.00,,SCT050,0.00,VWS V14.01,2013-04-18 17:03:00,
2013-04-18 13:08:00,79.8,64.7,30.28,ENE,72,0.0,3.0,60,0.00,,SCT050,0.00,VWS V14.01,2013-04-18 17:08:00,
2013-04-18 13:13:00,79.4,64.3,30.28,North,358,0.0,1.0,60,0.00,,SCT050,0.00,VWS V14.01,2013-04-18 17:13:00,
2013-04-18 13:18:00,79.8,63.7,30.28,East,100,0.0,3.0,58,0.00,,SCT050,0.00,VWS V14.01,2013-04-18 17:18:00,
2013-04-18 13:23:00,79.8,64.7,30.28,NE,44,3.0,4.0,60,0.00,,SCT050,0.00,VWS V14.01,2013-04-18 17:23:00,
2013-04-18 13:28:00,80.1,64.0,30.28,East,94,0.0,4.0,58,0.00,,SCT050,0.00,VWS V14.01,2013-04-18 17:28:00,
2013-04-18 13:33:00,80.7,64.6,30.28,NNE,26,0.0,0.0,58,0.00,,SCT050,0.00,VWS V14.01,2013-04-18 17:33:00,
2013-04-18 13:38:00,80.7,64.6,30.28,ENE,64,4.0,5.0,58,0.00,,SCT050,0.00,VWS V14.01,2013-04-18 17:38:00,
2013-04-18 13:43:00,81.1,65.4,30.28,ESE,112,0.0,1.0,59,0.00,,SCT050,0.00,VWS V14.01,2013-04-18 17:43:00,
2013-04-18 13:48:00,81.2,64.5,30.28,ENE,75,0.0,2.0,57,0.00,,SCT050,0.00,VWS V14.01,2013-04-18 17:48:00,
2013-04-18 13:53:00,80.9,64.2,30.28,SSE,157,1.0,2.0,57,0.00,,SCT050,0.00,VWS V14.01,2013-04-18 17:53:00,
2013-04-18 13:58:00,80.9,64.8,30.28,NNE,16,0.0,3.0,58,0.00,,SCT050,0.00,VWS V14.01,2013-04-18 17:58:00,
2013-04-18 14:03:00,80.5,64.9,30.27,NE,44,0.0,3.0,59,0.00,,BKN050,0.00,VWS V14.01,2013-04-18 18:03:00,
2013-04-18 14:08:00,80.3,65.6,30.27,ESE,115,0.0,3.0,61,0.00,,BKN050,0.00,VWS V14.01,2013-04-18 18:08:00,
2013-04-18 14:13:00,80.5,64.9,30.27,SSW,199,0.0,3.0,59,0.00,,BKN050,0.00,VWS V14.01,2013-04-18 18:13:00,
2013-04-18 14:18:00,80.9,65.7,30.27,SE,133,1.0,4.0,60,0.00,,BKN050,0.00,VWS V14.01,2013-04-18 18:18:00,
2013-04-18 14:23:00,81.1,64.9,30.27,NNW,334,0.0,4.0,58,0.00,,BKN050,0.00,VWS V14.01,2013-04-18 18:23:00,
2013-04-18 14:28:00,80.7,64.6,30.27,East,98,0.0,4.0,58,0.00,,BKN050,0.00,VWS V14.01,2013-04-18 18:28:00,
2013-04-18 14:33:00,80.7,66.0,30.27,South,174,0.0,5.0,61,0.00,,BKN050,0.00,VWS V14.01,2013-04-18 18:33:00,
2013-04-18 14:38:00,81.1,64.4,30.27,NNE,20,0.0,2.0,57,0.00,,BKN050,0.00,VWS V14.01,2013-04-18 18:38:00,
2013-04-18 14:43:00,81.1,64.9,30.27,East,96,0.0,6.0,58,0.00,,BKN050,0.00,VWS V14.01,2013-04-18 18:43:00,
2013-04-18 14:48:00,81.1,64.4,30.27,SE,133,0.0,1.0,57,0.00,,BKN050,0.00,VWS V14.01,2013-04-18 18:48:00,
2013-04-18 14:53:00,80.9,63.8,30.27,East,99,0.0,4.0,56,0.00,,BKN050,0.00,VWS V14.01,2013-04-18 18:53:00,
2013-04-18 14:58:00,80.9,66.2,30.27,North,6,1.0,2.0,61,0.00,,BKN050,0.00,VWS V14.01,2013-04-18 18:58:00,
2013-04-18 15:03:00,81.2,65.0,30.26,ENE,62,3.0,6.0,58,0.00,,SCT050,0.00,VWS V14.01,2013-04-18 19:03:00,
2013-04-18 15:08:00,81.4,65.7,30.26,North,11,0.0,4.0,59,0.00,,SCT050,0.00,VWS V14.01,2013-04-18 19:08:00,
2013-04-18 15:13:00,82.0,65.8,30.26,SSE,148,1.0,6.0,58,0.00,,SCT050,0.00,VWS V14.01,2013-04-18 19:13:00,
2013-04-18 15:18:00,82.4,64.6,30.25,ENE,73,1.0,7.0,55,0.00,,SCT050,0.00,VWS V14.01,2013-04-18 19:18:00,
2013-04-18 15:24:00,82.4,64.6,30.25,ESE,113,0.0,1.0,55,0.00,,SCT050,0.00,VWS V14.01,2013-04-18 19:24:00,
2013-04-18 15:29:00,81.8,64.6,30.25,ENE,77,0.0,4.0,56,0.00,,SCT050,0.00,VWS V14.01,2013-04-18 19:29:00,
2013-04-18 15:34:00,81.1,64.9,30.25,ENE,72,0.0,0.0,58,0.00,,SCT050,0.00,VWS V14.01,2013-04-18 19:34:00,
2013-04-18 15:39:00,81.2,64.5,30.25,East,89,0.0,1.0,57,0.00,,SCT050,0.00,VWS V14.01,2013-04-18 19:39:00,
2013-04-18 15:44:00,81.6,64.9,30.25,South,186,0.0,4.0,57,0.00,,SCT050,0.00,VWS V14.01,2013-04-18 19:44:00,
2013-04-18 15:49:00,81.8,64.1,30.24,South,187,0.0,6.0,55,0.00,,SCT050,0.00,VWS V14.01,2013-04-18 19:49:00,
2013-04-18 15:54:00,82.0,65.3,30.24,NE,41,2.0,5.0,57,0.00,,SCT050,0.00,VWS V14.01,2013-04-18 19:54:00,
2013-04-18 15:59:00,82.2,64.4,30.24,East,84,0.0,3.0,55,0.00,,SCT050,0.00,VWS V14.01,2013-04-18 19:59:00,
2013-04-18 16:04:00,81.8,64.6,30.24,East,90,0.0,1.0,56,0.00,,SCT055,0.00,VWS V14.01,2013-04-18 20:04:00,
2013-04-18 16:09:00,81.6,64.9,30.24,ENE,68,0.0,6.0,57,0.00,,SCT055,0.00,VWS V14.01,2013-04-18 20:09:00,
2013-04-18 16:14:00,81.4,65.2,30.24,NNE,18,0.0,9.0,58,0.00,,SCT055,0.00,VWS V14.01,2013-04-18 20:14:00,
2013-04-18 16:19:00,81.2,64.5,30.23,East,89,0.0,4.0,57,0.00,,SCT055,0.00,VWS V14.01,2013-04-18 20:19:00,
2013-04-18 16:24:00,80.9,63.8,30.23,NE,45,0.0,5.0,56,0.00,,SCT055,0.00,VWS V14.01,2013-04-18 20:24:00,
2013-04-18 16:29:00,80.3,64.2,30.23,East,98,0.0,1.0,58,0.00,,SCT055,0.00,VWS V14.01,2013-04-18 20:29:00,
2013-04-18 16:34:00,80.1,63.5,30.23,SE,139,0.0,4.0,57,0.00,,SCT055,0.00,VWS V14.01,2013-04-18 20:34:00,
2013-04-18 16:39:00,80.1,63.5,30.23,East,96,2.0,4.0,57,0.00,,SCT055,0.00,VWS V14.01,2013-04-18 20:39:00,
2013-04-18 16:44:00,79.9,63.8,30.23,ESE,113,0.0,4.0,58,0.00,,SCT055,0.00,VWS V14.01,2013-04-18 20:44:00,
2013-04-18 16:49:00,80.1,63.5,30.23,NNE,16,0.0,4.0,57,0.00,,SCT055,0.00,VWS V14.01,2013-04-18 20:49:00,
2013-04-18 16:54:00,79.8,63.7,30.23,SE,129,0.0,5.0,58,0.00,,SCT055,0.00,VWS V14.01,2013-04-18 20:54:00,
2013-04-18 16:59:00,79.4,63.3,30.23,SE,131,3.0,10.0,58,0.00,,SCT055,0.00,VWS V14.01,2013-04-18 20:59:00,
2013-04-18 17:04:00,79.0,63.0,30.23,ESE,121,6.0,6.0,58,0.00,,SCT055,0.00,VWS V14.01,2013-04-18 21:04:00,
2013-04-18 17:09:00,79.0,63.5,30.23,ENE,74,0.0,7.0,59,0.00,,SCT055,0.00,VWS V14.01,2013-04-18 21:09:00,
2013-04-18 17:14:00,78.8,64.2,30.23,East,79,1.0,1.0,61,0.00,,SCT055,0.00,VWS V14.01,2013-04-18 21:14:00,
2013-04-18 17:19:00,79.4,63.8,30.23,East,91,2.0,4.0,59,0.00,,SCT055,0.00,VWS V14.01,2013-04-18 21:19:00,
2013-04-18 17:24:00,79.0,63.5,30.23,East,96,0.0,6.0,59,0.00,,SCT055,0.00,VWS V14.01,2013-04-18 21:24:00,
2013-04-18 17:29:00,78.8,63.3,30.23,ESE,115,0.0,4.0,59,0.00,,SCT055,0.00,VWS V14.01,2013-04-18 21:29:00,
2013-04-18 17:34:00,78.3,63.3,30.23,East,91,0.0,7.0,60,0.00,,SCT055,0.00,VWS V14.01,2013-04-18 21:34:00,
2013-04-18 17:39:00,77.4,62.9,30.23,East,82,0.0,7.0,61,0.00,,SCT055,0.00,VWS V14.01,2013-04-18 21:39:00,
2013-04-18 17:44:00,76.8,62.8,30.23,East,82,0.0,1.0,62,0.00,,SCT055,0.00,VWS V14.01,2013-04-18 21:44:00,
2013-04-18 17:49:00,76.7,63.2,30.23,ESE,117,0.0,2.0,63,0.00,,SCT055,0.00,VWS V14.01,2013-04-18 21:49:00,
2013-04-18 17:54:00,76.5,63.0,30.23,SSE,163,0.0,1.0,63,0.00,,SCT055,0.00,VWS V14.01,2013-04-18 21:54:00,
2013-04-18 17:59:00,76.3,63.2,30.23,SE,135,0.0,3.0,64,0.00,,SCT055,0.00,VWS V14.01,2013-04-18 21:59:00,
2013-04-18 18:04:00,76.1,63.0,30.23,ESE,112,1.0,2.0,64,0.00,,BKN070,0.00,VWS V14.01,2013-04-18 22:04:00,
2013-04-18 18:09:00,76.3,63.7,30.23,East,86,2.0,4.0,65,0.00,,BKN070,0.00,VWS V14.01,2013-04-18 22:09:00,
2013-04-18 18:14:00,76.8,63.7,30.23,East,89,0.0,0.0,64,0.00,,BKN070,0.00,VWS V14.01,2013-04-18 22:14:00,
2013-04-18 18:19:00,77.6,64.5,30.22,NE,39,0.0,2.0,64,0.00,,BKN070,0.00,VWS V14.01,2013-04-18 22:19:00,
2013-04-18 18:24:00,77.7,64.1,30.22,NE,34,0.0,4.0,63,0.00,,BKN070,0.00,VWS V14.01,2013-04-18 22:24:00,
2013-04-18 18:29:00,77.7,64.6,30.22,ENE,58,0.0,0.0,64,0.00,,BKN070,0.00,VWS V14.01,2013-04-18 22:29:00,
2013-04-18 18:34:00,77.7,63.7,30.22,NE,37,2.0,2.0,62,0.00,,BKN070,0.00,VWS V14.01,2013-04-18 22:34:00,
2013-04-18 18:39:00,77.7,63.7,30.22,NE,51,0.0,4.0,62,0.00,,BKN070,0.00,VWS V14.01,2013-04-18 22:39:00,
2013-04-18 18:44:00,77.4,63.8,30.22,East,101,0.0,4.0,63,0.00,,BKN070,0.00,VWS V14.01,2013-04-18 22:44:00,
2013-04-18 18:49:00,76.8,64.2,30.21,ENE,62,0.0,0.0,65,0.00,,BKN070,0.00,VWS V14.01,2013-04-18 22:49:00,
2013-04-18 18:54:00,76.7,64.1,30.21,ESE,106,0.0,5.0,65,0.00,,BKN070,0.00,VWS V14.01,2013-04-18 22:54:00,
2013-04-18 18:59:00,76.3,64.1,30.21,East,84,0.0,2.0,66,0.00,,BKN070,0.00,VWS V14.01,2013-04-18 22:59:00,
2013-04-18 19:04:00,76.0,63.8,30.20,ENE,63,0.0,3.0,66,0.00,,FEW030,0.00,VWS V14.01,2013-04-18 23:04:00,
2013-04-18 19:09:00,75.6,64.3,30.20,SSE,161,3.0,3.0,68,0.00,,FEW030,0.00,VWS V14.01,2013-04-18 23:09:00,
2013-04-18 19:14:00,75.1,63.8,30.20,South,172,0.0,6.0,68,0.00,,FEW030,0.00,VWS V14.01,2013-04-18 23:14:00,
2013-04-18 19:19:00,74.7,63.9,30.20,East,86,0.0,0.0,69,0.00,,FEW030,0.00,VWS V14.01,2013-04-18 23:19:00,
2013-04-18 19:24:00,74.4,64.0,30.20,ENE,63,3.0,3.0,70,0.00,,FEW030,0.00,VWS V14.01,2013-04-18 23:24:00,
2013-04-18 19:29:00,74.2,64.2,30.20,NNE,15,0.0,0.0,71,0.00,,FEW030,0.00,VWS V14.01,2013-04-18 23:29:00,
2013-04-18 19:34:00,73.9,64.3,30.19,East,82,0.0,0.0,72,0.00,,FEW030,0.00,VWS V14.01,2013-04-18 23:34:00,
2013-04-18 19:39:00,73.7,64.1,30.19,ENE,67,0.0,0.0,72,0.00,,FEW030,0.00,VWS V14.01,2013-04-18 23:39:00,
2013-04-18 19:44:00,73.5,64.3,30.19,NE,46,0.0,2.0,73,0.00,,FEW030,0.00,VWS V14.01,2013-04-18 23:44:00,
2013-04-18 19:49:00,73.3,64.5,30.19,NE,46,0.0,0.0,74,0.00,,FEW030,0.00,VWS V14.01,2013-04-18 23:49:00,
2013-04-18 19:54:00,73.0,64.6,30.19,ENE,63,0.0,0.0,75,0.00,,FEW030,0.00,VWS V14.01,2013-04-18 23:54:00,
2013-04-18 19:59:00,72.8,64.8,30.19,ENE,65,0.0,0.0,76,0.00,,FEW030,0.00,VWS V14.01,2013-04-18 23:59:00,
2013-04-18 20:04:00,72.7,65.1,30.20,ENE,66,1.0,1.0,77,0.00,,SCT250,0.00,VWS V14.01,2013-04-19 00:04:00,
2013-04-18 20:09:00,72.5,65.3,30.20,ENE,70,0.0,0.0,78,0.00,,SCT250,0.00,VWS V14.01,2013-04-19 00:09:00,
2013-04-18 20:14:00,72.3,65.4,30.20,NE,34,0.0,1.0,79,0.00,,SCT250,0.00,VWS V14.01,2013-04-19 00:14:00,
2013-04-18 20:19:00,72.0,65.5,30.19,NE,34,0.0,0.0,80,0.00,,SCT250,0.00,VWS V14.01,2013-04-19 00:19:00,
2013-04-18 20:24:00,71.8,65.7,30.19,NE,34,0.0,0.0,81,0.00,,SCT250,0.00,VWS V14.01,2013-04-19 00:24:00,
2013-04-18 20:29:00,71.6,65.5,30.19,NE,34,0.0,0.0,81,0.00,,SCT250,0.00,VWS V14.01,2013-04-19 00:29:00,
2013-04-18 20:34:00,71.5,65.7,30.20,NE,34,0.0,0.0,82,0.00,,SCT250,0.00,VWS V14.01,2013-04-19 00:34:00,
2013-04-18 20:39:00,71.3,65.9,30.20,NE,34,0.0,0.0,83,0.00,,SCT250,0.00,VWS V14.01,2013-04-19 00:39:00,
2013-04-18 20:44:00,71.1,66.0,30.20,NE,34,0.0,1.0,84,0.00,,SCT250,0.00,VWS V14.01,2013-04-19 00:44:00,
2013-04-18 20:49:00,70.9,66.2,30.20,NE,34,0.0,0.0,85,0.00,,SCT250,0.00,VWS V14.01,2013-04-19 00:49:00,
2013-04-18 20:54:00,70.8,66.1,30.20,NE,34,0.0,0.0,85,0.00,,SCT250,0.00,VWS V14.01,2013-04-19 00:54:00,
2013-04-18 20:59:00,70.6,66.2,30.20,NE,34,0.0,0.0,86,0.00,,SCT250,0.00,VWS V14.01,2013-04-19 00:59:00,
2013-04-18 21:04:00,70.6,66.6,30.20,North,0,0.0,1.0,87,0.00,,SCT250,0.00,VWS V14.01,2013-04-19 01:04:00,
2013-04-18 21:09:00,70.6,66.6,30.20,North,0,0.0,0.0,87,0.00,,SCT250,0.00,VWS V14.01,2013-04-19 01:09:00,
2013-04-18 21:14:00,70.6,66.6,30.20,NE,52,0.0,0.0,87,0.00,,SCT250,0.00,VWS V14.01,2013-04-19 01:14:00,
2013-04-18 21:19:00,70.6,66.6,30.21,ENE,73,0.0,0.0,87,0.00,,SCT250,0.00,VWS V14.01,2013-04-19 01:19:00,
2013-04-18 21:24:00,70.4,66.3,30.21,ENE,73,0.0,0.0,87,0.00,,SCT250,0.00,VWS V14.01,2013-04-19 01:24:00,
2013-04-18 21:29:00,70.4,66.3,30.21,ENE,73,0.0,0.0,87,0.00,,SCT250,0.00,VWS V14.01,2013-04-19 01:29:00,
2013-04-18 21:34:00,70.3,66.2,30.21,ENE,73,0.0,0.0,87,0.00,,SCT250,0.00,VWS V14.01,2013-04-19 01:34:00,
2013-04-18 21:39:00,70.1,66.4,30.21,ENE,73,0.0,0.0,88,0.00,,SCT250,0.00,VWS V14.01,2013-04-19 01:39:00,
2013-04-18 21:44:00,70.1,66.4,30.21,ENE,73,0.0,0.0,88,0.00,,SCT250,0.00,VWS V14.01,2013-04-19 01:44:00,
2013-04-18 21:49:00,69.9,66.2,30.22,ENE,73,0.0,0.0,88,0.00,,SCT250,0.00,VWS V14.01,2013-04-19 01:49:00,
2013-04-18 21:54:00,69.9,66.5,30.22,ENE,73,0.0,0.0,89,0.00,,SCT250,0.00,VWS V14.01,2013-04-19 01:54:00,
2013-04-18 21:59:00,69.9,66.5,30.22,ENE,73,0.0,0.0,89,0.00,,SCT250,0.00,VWS V14.01,2013-04-19 01:59:00,
2013-04-18 22:04:00,69.8,66.4,30.21,ENE,73,0.0,0.0,89,0.00,,BKN080,0.00,VWS V14.01,2013-04-19 02:04:00,
2013-04-18 22:09:00,69.8,66.4,30.21,ENE,73,0.0,0.0,89,0.00,,BKN080,0.00,VWS V14.01,2013-04-19 02:09:00,
2013-04-18 22:14:00,69.6,66.5,30.21,ENE,73,0.0,0.0,90,0.00,,BKN080,0.00,VWS V14.01,2013-04-19 02:14:00,
2013-04-18 22:19:00,69.4,66.3,30.21,ENE,73,0.0,0.0,90,0.00,,BKN080,0.00,VWS V14.01,2013-04-19 02:19:00,
2013-04-18 22:24:00,69.4,66.3,30.21,ENE,73,0.0,0.0,90,0.00,,BKN080,0.00,VWS V14.01,2013-04-19 02:24:00,
2013-04-18 22:29:00,69.4,66.3,30.21,ENE,73,0.0,0.0,90,0.00,,BKN080,0.00,VWS V14.01,2013-04-19 02:29:00,
2013-04-18 22:34:00,69.4,66.7,30.21,ENE,73,0.0,0.0,91,0.00,,BKN080,0.00,VWS V14.01,2013-04-19 02:34:00,
2013-04-18 22:39:00,69.4,66.7,30.21,ENE,73,0.0,0.0,91,0.00,,BKN080,0.00,VWS V14.01,2013-04-19 02:39:00,
2013-04-18 22:44:00,69.3,66.6,30.21,ENE,73,0.0,0.0,91,0.00,,BKN080,0.00,VWS V14.01,2013-04-19 02:44:00,
2013-04-18 22:49:00,69.3,66.6,30.21,ENE,73,0.0,0.0,91,0.00,,BKN080,0.00,VWS V14.01,2013-04-19 02:49:00,
2013-04-18 22:54:00,69.3,66.6,30.21,ENE,73,0.0,0.0,91,0.00,,BKN080,0.00,VWS V14.01,2013-04-19 02:54:00,
2013-04-18 22:59:00,69.3,66.6,30.21,ENE,73,0.0,0.0,91,0.00,,BKN080,0.00,VWS V14.01,2013-04-19 02:59:00,
2013-04-18 23:04:00,69.1,66.4,30.21,ENE,73,0.0,0.0,91,0.00,,SCT080,0.00,VWS V14.01,2013-04-19 03:04:00,
2013-04-18 23:09:00,69.1,66.7,30.21,ENE,73,0.0,0.0,92,0.00,,SCT080,0.00,VWS V14.01,2013-04-19 03:09:00,
2013-04-18 23:14:00,68.9,66.5,30.21,ENE,73,0.0,0.0,92,0.00,,SCT080,0.00,VWS V14.01,2013-04-19 03:14:00,
2013-04-18 23:19:00,68.9,66.5,30.19,ENE,73,0.0,0.0,92,0.00,,SCT080,0.00,VWS V14.01,2013-04-19 03:19:00,
2013-04-18 23:24:00,68.9,66.5,30.19,ENE,73,0.0,0.0,92,0.00,,SCT080,0.00,VWS V14.01,2013-04-19 03:24:00,
2013-04-18 23:29:00,69.1,66.7,30.19,ENE,73,0.0,0.0,92,0.00,,SCT080,0.00,VWS V14.01,2013-04-19 03:29:00,
2013-04-18 23:34:00,69.1,66.7,30.19,ENE,73,0.0,0.0,92,0.00,,SCT080,0.00,VWS V14.01,2013-04-19 03:34:00,
2013-04-18 23:39:00,68.9,66.5,30.19,ENE,73,0.0,0.0,92,0.00,,SCT080,0.00,VWS V14.01,2013-04-19 03:39:00,
2013-04-18 23:44:00,68.9,66.5,30.19,ENE,73,0.0,0.0,92,0.00,,SCT080,0.00,VWS V14.01,2013-04-19 03:44:00,
2013-04-18 23:49:00,68.9,66.5,30.19,East,99,0.0,0.0,92,0.00,,SCT080,0.00,VWS V14.01,2013-04-19 03:49:00,
2013-04-18 23:54:00,69.1,66.7,30.19,ESE,108,0.0,0.0,92,0.00,,SCT080,0.00,VWS V14.01,2013-04-19 03:54:00,
2013-04-18 23:59:00,69.3,66.9,30.19,ESE,108,0.0,0.0,92,0.00,,SCT080,0.00,VWS V14.01,2013-04-19 03:59:00,